sensor_id;sensor_type;location;lat;lon;timestamp;temperature;humidity
68977;SHT31;56029;52.568;13.588;2024-02-23T00:01:26;9.53;99.99
68977;SHT31;56029;52.568;13.588;2024-02-23T00:03:51;9.52;99.99
68977;SHT31;56029;52.568;13.588;2024-02-23T00:06:17;9.46;99.99
68977;SHT31;56029;52.568;13.588;2024-02-23T00:08:43;9.43;99.99
68977;SHT31;56029;52.568;13.588;2024-02-23T00:11:08;9.43;99.99
68977;SHT31;56029;52.568;13.588;2024-02-23T00:13:35;9.39;99.99
68977;SHT31;56029;52.568;13.588;2024-02-23T00:16:00;9.40;99.99
68977;SHT31;56029;52.568;13.588;2024-02-23T00:18:26;9.36;99.99
68977;SHT31;56029;52.568;13.588;2024-02-23T00:20:51;9.38;99.99
68977;SHT31;56029;52.568;13.588;2024-02-23T00:23:17;9.46;99.99
68977;SHT31;56029;52.568;13.588;2024-02-23T00:25:42;9.48;99.99
68977;SHT31;56029;52.568;13.588;2024-02-23T00:28:08;9.59;99.99
68977;SHT31;56029;52.568;13.588;2024-02-23T00:30:34;9.63;99.99
68977;SHT31;56029;52.568;13.588;2024-02-23T00:32:59;9.63;99.99
68977;SHT31;56029;52.568;13.588;2024-02-23T00:35:25;9.58;99.99
68977;SHT31;56029;52.568;13.588;2024-02-23T00:37:50;9.59;99.99
68977;SHT31;56029;52.568;13.588;2024-02-23T00:40:16;9.56;99.99
68977;SHT31;56029;52.568;13.588;2024-02-23T00:42:41;9.59;99.99
68977;SHT31;56029;52.568;13.588;2024-02-23T00:45:07;9.56;99.99
68977;SHT31;56029;52.568;13.588;2024-02-23T00:47:33;9.55;99.99
68977;SHT31;56029;52.568;13.588;2024-02-23T00:49:58;9.49;99.99
68977;SHT31;56029;52.568;13.588;2024-02-23T00:52:24;9.49;99.99
68977;SHT31;56029;52.568;13.588;2024-02-23T00:54:49;9.46;99.99
68977;SHT31;56029;52.568;13.588;2024-02-23T00:57:15;9.43;99.99
68977;SHT31;56029;52.568;13.588;2024-02-23T00:59:40;9.40;99.99
68977;SHT31;56029;52.568;13.588;2024-02-23T01:02:06;9.42;99.99
68977;SHT31;56029;52.568;13.588;2024-02-23T01:04:31;9.42;99.99
68977;SHT31;56029;52.568;13.588;2024-02-23T01:06:58;9.45;99.99
68977;SHT31;56029;52.568;13.588;2024-02-23T01:09:23;9.42;99.99
68977;SHT31;56029;52.568;13.588;2024-02-23T01:11:49;9.50;99.99
68977;SHT31;56029;52.568;13.588;2024-02-23T01:14:14;9.48;99.99
68977;SHT31;56029;52.568;13.588;2024-02-23T01:16:40;9.49;99.99
68977;SHT31;56029;52.568;13.588;2024-02-23T01:19:05;9.52;99.99
68977;SHT31;56029;52.568;13.588;2024-02-23T01:21:31;9.53;99.99
68977;SHT31;56029;52.568;13.588;2024-02-23T01:23:56;9.55;99.99
68977;SHT31;56029;52.568;13.588;2024-02-23T01:26:23;9.60;99.99
68977;SHT31;56029;52.568;13.588;2024-02-23T01:28:48;9.60;99.99
68977;SHT31;56029;52.568;13.588;2024-02-23T01:31:14;9.62;99.99
68977;SHT31;56029;52.568;13.588;2024-02-23T01:33:39;9.67;99.99
68977;SHT31;56029;52.568;13.588;2024-02-23T01:36:06;9.65;99.99
68977;SHT31;56029;52.568;13.588;2024-02-23T01:38:32;9.65;99.99
68977;SHT31;56029;52.568;13.588;2024-02-23T01:40:58;9.65;99.99
68977;SHT31;56029;52.568;13.588;2024-02-23T01:43:24;9.69;99.99
68977;SHT31;56029;52.568;13.588;2024-02-23T01:45:50;9.75;99.34
68977;SHT31;56029;52.568;13.588;2024-02-23T01:48:16;9.86;98.63
68977;SHT31;56029;52.568;13.588;2024-02-23T01:50:42;9.89;98.60
68977;SHT31;56029;52.568;13.588;2024-02-23T01:53:09;9.93;98.23
68977;SHT31;56029;52.568;13.588;2024-02-23T01:55:36;10.03;96.95
68977;SHT31;56029;52.568;13.588;2024-02-23T01:58:02;10.04;97.09
68977;SHT31;56029;52.568;13.588;2024-02-23T02:00:29;10.06;96.43
68977;SHT31;56029;52.568;13.588;2024-02-23T02:02:54;10.20;94.38
68977;SHT31;56029;52.568;13.588;2024-02-23T02:05:20;10.25;94.29
68977;SHT31;56029;52.568;13.588;2024-02-23T02:07:47;10.41;92.34
68977;SHT31;56029;52.568;13.588;2024-02-23T02:10:14;10.45;91.03
68977;SHT31;56029;52.568;13.588;2024-02-23T02:12:40;10.46;90.91
68977;SHT31;56029;52.568;13.588;2024-02-23T02:15:06;10.61;88.47
68977;SHT31;56029;52.568;13.588;2024-02-23T02:17:31;10.64;88.34
68977;SHT31;56029;52.568;13.588;2024-02-23T02:19:58;10.61;87.61
68977;SHT31;56029;52.568;13.588;2024-02-23T02:22:24;10.64;86.22
68977;SHT31;56029;52.568;13.588;2024-02-23T02:24:50;10.82;83.59
68977;SHT31;56029;52.568;13.588;2024-02-23T02:27:15;10.75;83.72
68977;SHT31;56029;52.568;13.588;2024-02-23T02:29:41;10.71;84.42
68977;SHT31;56029;52.568;13.588;2024-02-23T02:32:06;10.62;84.87
68977;SHT31;56029;52.568;13.588;2024-02-23T02:34:32;10.61;84.84
68977;SHT31;56029;52.568;13.588;2024-02-23T02:36:57;10.62;83.79
68977;SHT31;56029;52.568;13.588;2024-02-23T02:39:23;10.58;83.72
68977;SHT31;56029;52.568;13.588;2024-02-23T02:41:48;10.55;82.86
68977;SHT31;56029;52.568;13.588;2024-02-23T02:44:14;10.56;81.07
68977;SHT31;56029;52.568;13.588;2024-02-23T02:46:40;10.46;81.74
68977;SHT31;56029;52.568;13.588;2024-02-23T02:49:06;10.45;80.06
68977;SHT31;56029;52.568;13.588;2024-02-23T02:51:31;10.37;79.27
68977;SHT31;56029;52.568;13.588;2024-02-23T02:53:57;10.42;75.63
68977;SHT31;56029;52.568;13.588;2024-02-23T02:56:22;10.42;75.34
68977;SHT31;56029;52.568;13.588;2024-02-23T02:58:48;10.42;75.20
68977;SHT31;56029;52.568;13.588;2024-02-23T03:01:13;10.27;75.94
68977;SHT31;56029;52.568;13.588;2024-02-23T03:03:39;10.14;76.17
68977;SHT31;56029;52.568;13.588;2024-02-23T03:06:04;10.17;75.09
68977;SHT31;56029;52.568;13.588;2024-02-23T03:08:31;10.14;75.60
68977;SHT31;56029;52.568;13.588;2024-02-23T03:10:56;10.06;75.90
68977;SHT31;56029;52.568;13.588;2024-02-23T03:13:22;10.06;75.22
68977;SHT31;56029;52.568;13.588;2024-02-23T03:15:47;10.01;75.65
68977;SHT31;56029;52.568;13.588;2024-02-23T03:18:13;9.91;76.39
68977;SHT31;56029;52.568;13.588;2024-02-23T03:20:38;9.90;76.34
68977;SHT31;56029;52.568;13.588;2024-02-23T03:23:04;9.79;77.20
68977;SHT31;56029;52.568;13.588;2024-02-23T03:25:29;9.82;76.03
68977;SHT31;56029;52.568;13.588;2024-02-23T03:27:55;9.75;76.64
68977;SHT31;56029;52.568;13.588;2024-02-23T03:30:20;9.65;76.65
68977;SHT31;56029;52.568;13.588;2024-02-23T03:32:46;9.65;75.69
68977;SHT31;56029;52.568;13.588;2024-02-23T03:35:11;9.65;75.59
68977;SHT31;56029;52.568;13.588;2024-02-23T03:37:37;9.55;76.80
68977;SHT31;56029;52.568;13.588;2024-02-23T03:40:04;9.49;76.30
68977;SHT31;56029;52.568;13.588;2024-02-23T03:42:30;9.46;75.25
68977;SHT31;56029;52.568;13.588;2024-02-23T03:44:55;9.45;75.67
68977;SHT31;56029;52.568;13.588;2024-02-23T03:47:21;9.42;75.80
68977;SHT31;56029;52.568;13.588;2024-02-23T03:49:46;9.35;75.89
68977;SHT31;56029;52.568;13.588;2024-02-23T03:52:12;9.34;75.11
68977;SHT31;56029;52.568;13.588;2024-02-23T03:54:37;9.31;75.19
68977;SHT31;56029;52.568;13.588;2024-02-23T03:57:03;9.32;74.89
68977;SHT31;56029;52.568;13.588;2024-02-23T03:59:28;9.28;75.08
68977;SHT31;56029;52.568;13.588;2024-02-23T04:01:54;9.28;74.74
68977;SHT31;56029;52.568;13.588;2024-02-23T04:04:19;9.34;74.20
68977;SHT31;56029;52.568;13.588;2024-02-23T04:06:45;9.35;74.02
68977;SHT31;56029;52.568;13.588;2024-02-23T04:09:10;9.28;74.54
68977;SHT31;56029;52.568;13.588;2024-02-23T04:11:36;9.25;74.75
68977;SHT31;56029;52.568;13.588;2024-02-23T04:14:02;9.14;75.68
68977;SHT31;56029;52.568;13.588;2024-02-23T04:16:27;9.10;75.70
68977;SHT31;56029;52.568;13.588;2024-02-23T04:18:53;9.12;75.58
68977;SHT31;56029;52.568;13.588;2024-02-23T04:21:20;9.07;76.31
68977;SHT31;56029;52.568;13.588;2024-02-23T04:23:45;8.94;76.66
68977;SHT31;56029;52.568;13.588;2024-02-23T04:26:11;8.87;76.95
68977;SHT31;56029;52.568;13.588;2024-02-23T04:28:40;8.88;77.03
68977;SHT31;56029;52.568;13.588;2024-02-23T04:31:08;8.94;76.69
68977;SHT31;56029;52.568;13.588;2024-02-23T04:33:34;8.80;77.72
68977;SHT31;56029;52.568;13.588;2024-02-23T04:36:00;8.81;77.47
68977;SHT31;56029;52.568;13.588;2024-02-23T04:38:25;8.80;77.68
68977;SHT31;56029;52.568;13.588;2024-02-23T04:40:51;8.83;77.37
68977;SHT31;56029;52.568;13.588;2024-02-23T04:43:16;8.85;76.94
68977;SHT31;56029;52.568;13.588;2024-02-23T04:45:42;8.84;77.25
68977;SHT31;56029;52.568;13.588;2024-02-23T04:48:07;8.97;74.86
68977;SHT31;56029;52.568;13.588;2024-02-23T04:50:33;8.91;75.31
68977;SHT31;56029;52.568;13.588;2024-02-23T04:52:58;8.88;75.35
68977;SHT31;56029;52.568;13.588;2024-02-23T04:55:24;8.83;75.68
68977;SHT31;56029;52.568;13.588;2024-02-23T04:57:49;8.79;75.12
68977;SHT31;56029;52.568;13.588;2024-02-23T05:00:15;8.74;74.96
68977;SHT31;56029;52.568;13.588;2024-02-23T05:02:41;8.79;74.44
68977;SHT31;56029;52.568;13.588;2024-02-23T05:05:07;8.74;75.26
68977;SHT31;56029;52.568;13.588;2024-02-23T05:07:32;8.77;75.03
68977;SHT31;56029;52.568;13.588;2024-02-23T05:09:58;8.76;75.42
68977;SHT31;56029;52.568;13.588;2024-02-23T05:12:23;8.73;75.52
68977;SHT31;56029;52.568;13.588;2024-02-23T05:14:49;8.81;75.28
68977;SHT31;56029;52.568;13.588;2024-02-23T05:17:14;8.80;75.31
68977;SHT31;56029;52.568;13.588;2024-02-23T05:19:40;8.76;75.03
68977;SHT31;56029;52.568;13.588;2024-02-23T05:22:05;8.83;74.61
68977;SHT31;56029;52.568;13.588;2024-02-23T05:24:31;8.85;74.87
68977;SHT31;56029;52.568;13.588;2024-02-23T05:26:57;8.81;74.67
68977;SHT31;56029;52.568;13.588;2024-02-23T05:29:26;8.69;75.45
68977;SHT31;56029;52.568;13.588;2024-02-23T05:31:52;8.60;74.85
68977;SHT31;56029;52.568;13.588;2024-02-23T05:34:18;8.52;74.34
68977;SHT31;56029;52.568;13.588;2024-02-23T05:36:44;8.43;73.98
68977;SHT31;56029;52.568;13.588;2024-02-23T05:39:09;8.42;73.81
68977;SHT31;56029;52.568;13.588;2024-02-23T05:41:35;8.26;74.42
68977;SHT31;56029;52.568;13.588;2024-02-23T05:44:03;8.13;75.30
68977;SHT31;56029;52.568;13.588;2024-02-23T05:46:29;8.12;75.32
68977;SHT31;56029;52.568;13.588;2024-02-23T05:48:54;8.03;75.69
68977;SHT31;56029;52.568;13.588;2024-02-23T05:51:20;8.05;75.15
68977;SHT31;56029;52.568;13.588;2024-02-23T05:53:45;7.95;75.74
68977;SHT31;56029;52.568;13.588;2024-02-23T05:56:11;7.91;75.92
68977;SHT31;56029;52.568;13.588;2024-02-23T05:58:36;7.85;76.08
68977;SHT31;56029;52.568;13.588;2024-02-23T06:01:02;7.84;76.00
68977;SHT31;56029;52.568;13.588;2024-02-23T06:03:28;7.75;76.49
68977;SHT31;56029;52.568;13.588;2024-02-23T06:05:53;7.71;76.23
68977;SHT31;56029;52.568;13.588;2024-02-23T06:08:19;7.64;76.16
68977;SHT31;56029;52.568;13.588;2024-02-23T06:10:44;7.60;76.37
68977;SHT31;56029;52.568;13.588;2024-02-23T06:13:10;7.61;76.12
68977;SHT31;56029;52.568;13.588;2024-02-23T06:15:35;7.57;75.79
68977;SHT31;56029;52.568;13.588;2024-02-23T06:18:01;7.52;76.09
68977;SHT31;56029;52.568;13.588;2024-02-23T06:20:26;7.47;75.84
68977;SHT31;56029;52.568;13.588;2024-02-23T06:22:52;7.50;75.57
68977;SHT31;56029;52.568;13.588;2024-02-23T06:25:17;7.42;75.97
68977;SHT31;56029;52.568;13.588;2024-02-23T06:27:43;7.44;75.65
68977;SHT31;56029;52.568;13.588;2024-02-23T06:30:08;7.42;76.42
68977;SHT31;56029;52.568;13.588;2024-02-23T06:32:34;7.37;76.46
68977;SHT31;56029;52.568;13.588;2024-02-23T06:35:00;7.37;76.16
68977;SHT31;56029;52.568;13.588;2024-02-23T06:37:25;7.32;76.68
68977;SHT31;56029;52.568;13.588;2024-02-23T06:39:51;7.30;76.95
68977;SHT31;56029;52.568;13.588;2024-02-23T06:42:16;7.24;76.86
68977;SHT31;56029;52.568;13.588;2024-02-23T06:44:42;7.19;77.49
68977;SHT31;56029;52.568;13.588;2024-02-23T06:47:07;7.23;77.62
68977;SHT31;56029;52.568;13.588;2024-02-23T06:49:33;7.23;77.46
68977;SHT31;56029;52.568;13.588;2024-02-23T06:51:58;7.29;77.11
68977;SHT31;56029;52.568;13.588;2024-02-23T06:54:24;7.24;77.45
68977;SHT31;56029;52.568;13.588;2024-02-23T06:56:49;7.29;76.77
68977;SHT31;56029;52.568;13.588;2024-02-23T06:59:15;7.26;77.86
68977;SHT31;56029;52.568;13.588;2024-02-23T07:01:50;7.30;76.87
68977;SHT31;56029;52.568;13.588;2024-02-23T07:04:16;7.32;76.76
68977;SHT31;56029;52.568;13.588;2024-02-23T07:06:42;7.29;76.89
68977;SHT31;56029;52.568;13.588;2024-02-23T07:09:07;7.30;76.72
68977;SHT31;56029;52.568;13.588;2024-02-23T07:11:33;7.29;76.42
68977;SHT31;56029;52.568;13.588;2024-02-23T07:13:58;7.30;76.14
68977;SHT31;56029;52.568;13.588;2024-02-23T07:16:24;7.32;76.46
68977;SHT31;56029;52.568;13.588;2024-02-23T07:18:49;7.40;76.46
68977;SHT31;56029;52.568;13.588;2024-02-23T07:21:17;7.42;76.69
68977;SHT31;56029;52.568;13.588;2024-02-23T07:23:43;7.47;75.65
68977;SHT31;56029;52.568;13.588;2024-02-23T07:26:08;7.44;75.80
68977;SHT31;56029;52.568;13.588;2024-02-23T07:28:34;7.43;76.19
68977;SHT31;56029;52.568;13.588;2024-02-23T07:30:59;7.47;75.94
68977;SHT31;56029;52.568;13.588;2024-02-23T07:33:25;7.56;76.53
68977;SHT31;56029;52.568;13.588;2024-02-23T07:35:50;7.53;75.53
68977;SHT31;56029;52.568;13.588;2024-02-23T07:38:16;7.53;76.27
68977;SHT31;56029;52.568;13.588;2024-02-23T07:40:42;7.57;76.54
68977;SHT31;56029;52.568;13.588;2024-02-23T07:43:07;7.53;75.36
68977;SHT31;56029;52.568;13.588;2024-02-23T07:45:33;7.47;75.83
68977;SHT31;56029;52.568;13.588;2024-02-23T07:47:58;7.47;76.74
68977;SHT31;56029;52.568;13.588;2024-02-23T07:50:24;7.46;76.28
68977;SHT31;56029;52.568;13.588;2024-02-23T07:52:49;7.43;76.07
68977;SHT31;56029;52.568;13.588;2024-02-23T07:55:15;7.43;77.00
68977;SHT31;56029;52.568;13.588;2024-02-23T07:57:40;7.40;77.07
68977;SHT31;56029;52.568;13.588;2024-02-23T08:00:06;7.40;76.34
68977;SHT31;56029;52.568;13.588;2024-02-23T08:02:32;7.44;76.51
68977;SHT31;56029;52.568;13.588;2024-02-23T08:04:57;7.39;76.22
68977;SHT31;56029;52.568;13.588;2024-02-23T08:07:23;7.40;76.17
68977;SHT31;56029;52.568;13.588;2024-02-23T08:09:48;7.37;76.73
68977;SHT31;56029;52.568;13.588;2024-02-23T08:12:14;7.37;76.98
68977;SHT31;56029;52.568;13.588;2024-02-23T08:14:39;7.46;76.46
68977;SHT31;56029;52.568;13.588;2024-02-23T08:17:05;7.53;77.29
68977;SHT31;56029;52.568;13.588;2024-02-23T08:19:30;7.63;76.54
68977;SHT31;56029;52.568;13.588;2024-02-23T08:21:56;7.69;76.70
68977;SHT31;56029;52.568;13.588;2024-02-23T08:24:21;7.77;77.09
68977;SHT31;56029;52.568;13.588;2024-02-23T08:26:47;7.80;76.55
68977;SHT31;56029;52.568;13.588;2024-02-23T08:29:13;7.87;76.60
68977;SHT31;56029;52.568;13.588;2024-02-23T08:31:38;7.90;76.88
68977;SHT31;56029;52.568;13.588;2024-02-23T08:34:04;7.88;76.60
68977;SHT31;56029;52.568;13.588;2024-02-23T08:36:29;7.87;76.73
68977;SHT31;56029;52.568;13.588;2024-02-23T08:38:55;7.84;76.82
68977;SHT31;56029;52.568;13.588;2024-02-23T08:41:20;7.80;77.34
68977;SHT31;56029;52.568;13.588;2024-02-23T08:43:46;7.80;77.10
68977;SHT31;56029;52.568;13.588;2024-02-23T08:46:11;7.82;77.58
68977;SHT31;56029;52.568;13.588;2024-02-23T08:48:37;7.91;77.82
68977;SHT31;56029;52.568;13.588;2024-02-23T08:51:02;7.90;77.07
68977;SHT31;56029;52.568;13.588;2024-02-23T08:53:28;7.92;76.93
68977;SHT31;56029;52.568;13.588;2024-02-23T08:55:53;7.95;77.16
68977;SHT31;56029;52.568;13.588;2024-02-23T08:58:19;8.05;77.49
68977;SHT31;56029;52.568;13.588;2024-02-23T09:00:44;8.09;76.55
68977;SHT31;56029;52.568;13.588;2024-02-23T09:03:10;8.19;76.86
68977;SHT31;56029;52.568;13.588;2024-02-23T09:05:35;8.30;76.16
68977;SHT31;56029;52.568;13.588;2024-02-23T09:08:01;8.40;74.95
68977;SHT31;56029;52.568;13.588;2024-02-23T09:10:26;8.50;75.86
68977;SHT31;56029;52.568;13.588;2024-02-23T09:12:52;8.53;75.03
68977;SHT31;56029;52.568;13.588;2024-02-23T09:15:17;8.60;74.43
68977;SHT31;56029;52.568;13.588;2024-02-23T09:17:43;8.64;74.01
68977;SHT31;56029;52.568;13.588;2024-02-23T09:20:09;8.66;75.18
68977;SHT31;56029;52.568;13.588;2024-02-23T09:22:35;8.81;74.20
68977;SHT31;56029;52.568;13.588;2024-02-23T09:25:00;8.87;72.90
68977;SHT31;56029;52.568;13.588;2024-02-23T09:27:26;8.91;73.71
68977;SHT31;56029;52.568;13.588;2024-02-23T09:29:51;8.83;72.89
68977;SHT31;56029;52.568;13.588;2024-02-23T09:32:17;8.79;74.32
68977;SHT31;56029;52.568;13.588;2024-02-23T09:34:42;8.76;72.90
68977;SHT31;56029;52.568;13.588;2024-02-23T09:37:08;8.80;73.32
68977;SHT31;56029;52.568;13.588;2024-02-23T09:39:33;8.77;72.84
68977;SHT31;56029;52.568;13.588;2024-02-23T09:42:00;8.71;72.03
68977;SHT31;56029;52.568;13.588;2024-02-23T09:44:32;8.70;71.77
68977;SHT31;56029;52.568;13.588;2024-02-23T09:46:58;8.81;72.63
68977;SHT31;56029;52.568;13.588;2024-02-23T09:49:25;8.92;72.54
68977;SHT31;56029;52.568;13.588;2024-02-23T09:51:51;9.03;71.11
68977;SHT31;56029;52.568;13.588;2024-02-23T09:54:17;9.14;70.74
68977;SHT31;56029;52.568;13.588;2024-02-23T09:56:43;9.07;70.44
68977;SHT31;56029;52.568;13.588;2024-02-23T09:59:09;9.07;69.48
68977;SHT31;56029;52.568;13.588;2024-02-23T10:01:35;9.15;70.12
68977;SHT31;56029;52.568;13.588;2024-02-23T10:04:01;9.17;68.30
68977;SHT31;56029;52.568;13.588;2024-02-23T10:06:27;9.21;69.28
68977;SHT31;56029;52.568;13.588;2024-02-23T10:08:52;9.29;70.37
68977;SHT31;56029;52.568;13.588;2024-02-23T10:11:18;9.36;71.14
68977;SHT31;56029;52.568;13.588;2024-02-23T10:13:44;9.39;68.98
68977;SHT31;56029;52.568;13.588;2024-02-23T10:16:09;9.40;70.14
68977;SHT31;56029;52.568;13.588;2024-02-23T10:18:37;9.35;69.29
68977;SHT31;56029;52.568;13.588;2024-02-23T10:21:04;9.21;69.15
68977;SHT31;56029;52.568;13.588;2024-02-23T10:23:30;9.17;68.27
68977;SHT31;56029;52.568;13.588;2024-02-23T10:25:55;9.17;68.18
68977;SHT31;56029;52.568;13.588;2024-02-23T10:28:21;9.08;68.99
68977;SHT31;56029;52.568;13.588;2024-02-23T10:30:47;9.18;69.30
68977;SHT31;56029;52.568;13.588;2024-02-23T10:33:14;9.27;69.26
68977;SHT31;56029;52.568;13.588;2024-02-23T10:35:40;9.48;70.43
68977;SHT31;56029;52.568;13.588;2024-02-23T10:38:08;9.67;69.43
68977;SHT31;56029;52.568;13.588;2024-02-23T10:40:34;9.85;69.84
68977;SHT31;56029;52.568;13.588;2024-02-23T10:43:02;9.83;69.40
68977;SHT31;56029;52.568;13.588;2024-02-23T10:45:28;9.65;69.26
68977;SHT31;56029;52.568;13.588;2024-02-23T10:47:55;9.56;70.61
68977;SHT31;56029;52.568;13.588;2024-02-23T10:50:21;9.58;70.36
68977;SHT31;56029;52.568;13.588;2024-02-23T10:52:47;9.62;69.59
68977;SHT31;56029;52.568;13.588;2024-02-23T10:55:14;9.63;70.02
68977;SHT31;56029;52.568;13.588;2024-02-23T10:57:39;9.67;68.89
68977;SHT31;56029;52.568;13.588;2024-02-23T11:00:07;9.75;71.01
68977;SHT31;56029;52.568;13.588;2024-02-23T11:02:36;9.87;70.18
68977;SHT31;56029;52.568;13.588;2024-02-23T11:05:04;9.90;70.58
68977;SHT31;56029;52.568;13.588;2024-02-23T11:07:30;9.94;71.14
68977;SHT31;56029;52.568;13.588;2024-02-23T11:09:58;10.01;70.77
68977;SHT31;56029;52.568;13.588;2024-02-23T11:12:25;9.94;68.19
68977;SHT31;56029;52.568;13.588;2024-02-23T11:14:51;9.80;67.58
68977;SHT31;56029;52.568;13.588;2024-02-23T11:17:20;9.76;67.57
68977;SHT31;56029;52.568;13.588;2024-02-23T11:19:49;9.72;66.61
68977;SHT31;56029;52.568;13.588;2024-02-23T11:22:14;9.58;67.40
68977;SHT31;56029;52.568;13.588;2024-02-23T11:24:44;9.53;66.89
68977;SHT31;56029;52.568;13.588;2024-02-23T11:27:13;9.60;67.74
68977;SHT31;56029;52.568;13.588;2024-02-23T11:29:39;9.59;67.88
68977;SHT31;56029;52.568;13.588;2024-02-23T11:32:12;9.69;67.55
68977;SHT31;56029;52.568;13.588;2024-02-23T11:34:39;9.66;66.39
68977;SHT31;56029;52.568;13.588;2024-02-23T11:37:10;9.76;68.19
68977;SHT31;56029;52.568;13.588;2024-02-23T11:39:39;9.86;68.72
68977;SHT31;56029;52.568;13.588;2024-02-23T11:42:06;9.96;68.58
68977;SHT31;56029;52.568;13.588;2024-02-23T11:44:31;10.03;68.41
68977;SHT31;56029;52.568;13.588;2024-02-23T11:46:58;10.07;67.96
68977;SHT31;56029;52.568;13.588;2024-02-23T11:49:30;10.10;67.36
68977;SHT31;56029;52.568;13.588;2024-02-23T11:51:56;10.03;66.67
68977;SHT31;56029;52.568;13.588;2024-02-23T11:54:22;9.96;66.70
68977;SHT31;56029;52.568;13.588;2024-02-23T11:56:48;9.90;67.33
68977;SHT31;56029;52.568;13.588;2024-02-23T11:59:14;9.96;67.29
68977;SHT31;56029;52.568;13.588;2024-02-23T12:01:40;9.91;66.79
68977;SHT31;56029;52.568;13.588;2024-02-23T12:04:05;9.91;67.24
68977;SHT31;56029;52.568;13.588;2024-02-23T12:06:31;10.03;67.90
68977;SHT31;56029;52.568;13.588;2024-02-23T12:08:57;9.97;66.67
68977;SHT31;56029;52.568;13.588;2024-02-23T12:11:22;9.93;66.05
68977;SHT31;56029;52.568;13.588;2024-02-23T12:13:48;9.98;67.28
68977;SHT31;56029;52.568;13.588;2024-02-23T12:16:14;10.01;65.95
68977;SHT31;56029;52.568;13.588;2024-02-23T12:18:39;10.11;66.36
68977;SHT31;56029;52.568;13.588;2024-02-23T12:21:06;10.13;67.03
68977;SHT31;56029;52.568;13.588;2024-02-23T12:23:42;10.07;66.28
68977;SHT31;56029;52.568;13.588;2024-02-23T12:26:09;10.11;66.79
68977;SHT31;56029;52.568;13.588;2024-02-23T12:28:35;10.11;66.97
68977;SHT31;56029;52.568;13.588;2024-02-23T12:31:02;10.00;66.71
68977;SHT31;56029;52.568;13.588;2024-02-23T12:33:29;9.96;66.96
68977;SHT31;56029;52.568;13.588;2024-02-23T12:35:56;9.89;66.49
68977;SHT31;56029;52.568;13.588;2024-02-23T12:38:22;9.87;66.56
68977;SHT31;56029;52.568;13.588;2024-02-23T12:40:47;9.86;66.47
68977;SHT31;56029;52.568;13.588;2024-02-23T12:43:13;9.96;68.20
68977;SHT31;56029;52.568;13.588;2024-02-23T12:45:38;9.94;67.38
68977;SHT31;56029;52.568;13.588;2024-02-23T12:48:05;10.04;67.42
68977;SHT31;56029;52.568;13.588;2024-02-23T12:50:30;9.93;66.08
68977;SHT31;56029;52.568;13.588;2024-02-23T12:52:56;9.97;66.66
68977;SHT31;56029;52.568;13.588;2024-02-23T12:55:21;10.08;66.22
68977;SHT31;56029;52.568;13.588;2024-02-23T12:57:47;10.21;67.48
68977;SHT31;56029;52.568;13.588;2024-02-23T13:00:13;10.25;67.74
68977;SHT31;56029;52.568;13.588;2024-02-23T13:02:39;10.25;66.72
68977;SHT31;56029;52.568;13.588;2024-02-23T13:05:04;10.18;66.06
68977;SHT31;56029;52.568;13.588;2024-02-23T13:07:30;10.07;68.11
68977;SHT31;56029;52.568;13.588;2024-02-23T13:09:55;9.98;67.70
68977;SHT31;56029;52.568;13.588;2024-02-23T13:12:21;9.85;67.17
68977;SHT31;56029;52.568;13.588;2024-02-23T13:14:46;9.94;68.10
68977;SHT31;56029;52.568;13.588;2024-02-23T13:17:12;9.94;68.20
68977;SHT31;56029;52.568;13.588;2024-02-23T13:19:37;10.06;69.30
68977;SHT31;56029;52.568;13.588;2024-02-23T13:22:03;10.06;68.02
68977;SHT31;56029;52.568;13.588;2024-02-23T13:24:28;10.13;68.62
68977;SHT31;56029;52.568;13.588;2024-02-23T13:26:54;10.04;67.94
68977;SHT31;56029;52.568;13.588;2024-02-23T13:29:19;10.03;68.67
68977;SHT31;56029;52.568;13.588;2024-02-23T13:31:45;9.94;68.70
68977;SHT31;56029;52.568;13.588;2024-02-23T13:34:10;9.97;67.89
68977;SHT31;56029;52.568;13.588;2024-02-23T13:36:36;9.98;68.28
68977;SHT31;56029;52.568;13.588;2024-02-23T13:39:02;9.93;69.14
68977;SHT31;56029;52.568;13.588;2024-02-23T13:41:27;9.87;68.52
68977;SHT31;56029;52.568;13.588;2024-02-23T13:43:53;9.89;68.41
68977;SHT31;56029;52.568;13.588;2024-02-23T13:46:18;9.86;68.76
68977;SHT31;56029;52.568;13.588;2024-02-23T13:49:00;9.79;68.68
68977;SHT31;56029;52.568;13.588;2024-02-23T13:51:26;9.77;69.99
68977;SHT31;56029;52.568;13.588;2024-02-23T13:53:52;9.82;70.00
68977;SHT31;56029;52.568;13.588;2024-02-23T13:56:17;9.85;68.82
68977;SHT31;56029;52.568;13.588;2024-02-23T13:58:43;9.89;69.75
68977;SHT31;56029;52.568;13.588;2024-02-23T14:01:08;9.77;69.01
68977;SHT31;56029;52.568;13.588;2024-02-23T14:03:34;9.77;68.87
68977;SHT31;56029;52.568;13.588;2024-02-23T14:06:00;9.72;69.48
68977;SHT31;56029;52.568;13.588;2024-02-23T14:08:25;9.77;69.81
68977;SHT31;56029;52.568;13.588;2024-02-23T14:10:51;9.75;69.36
68977;SHT31;56029;52.568;13.588;2024-02-23T14:13:16;9.63;68.87
68977;SHT31;56029;52.568;13.588;2024-02-23T14:15:42;9.59;69.77
68977;SHT31;56029;52.568;13.588;2024-02-23T14:18:07;9.62;69.20
68977;SHT31;56029;52.568;13.588;2024-02-23T14:20:33;9.56;69.38
68977;SHT31;56029;52.568;13.588;2024-02-23T14:22:58;9.67;69.78
68977;SHT31;56029;52.568;13.588;2024-02-23T14:25:24;9.66;69.37
68977;SHT31;56029;52.568;13.588;2024-02-23T14:27:49;9.59;69.68
68977;SHT31;56029;52.568;13.588;2024-02-23T14:30:15;9.66;69.89
68977;SHT31;56029;52.568;13.588;2024-02-23T14:32:40;9.63;70.39
68977;SHT31;56029;52.568;13.588;2024-02-23T14:35:06;9.59;70.07
68977;SHT31;56029;52.568;13.588;2024-02-23T14:37:32;9.39;70.00
68977;SHT31;56029;52.568;13.588;2024-02-23T14:39:57;9.45;70.27
68977;SHT31;56029;52.568;13.588;2024-02-23T14:42:23;9.29;69.54
68977;SHT31;56029;52.568;13.588;2024-02-23T14:44:48;9.27;69.00
68977;SHT31;56029;52.568;13.588;2024-02-23T14:47:14;9.14;68.64
68977;SHT31;56029;52.568;13.588;2024-02-23T14:49:40;9.05;68.80
68977;SHT31;56029;52.568;13.588;2024-02-23T14:52:05;9.08;68.76
68977;SHT31;56029;52.568;13.588;2024-02-23T14:54:31;9.04;67.93
68977;SHT31;56029;52.568;13.588;2024-02-23T14:56:56;8.91;68.42
68977;SHT31;56029;52.568;13.588;2024-02-23T14:59:22;8.90;68.32
68977;SHT31;56029;52.568;13.588;2024-02-23T15:01:47;8.88;69.30
68977;SHT31;56029;52.568;13.588;2024-02-23T15:04:13;8.81;68.88
68977;SHT31;56029;52.568;13.588;2024-02-23T15:06:38;8.83;69.38
68977;SHT31;56029;52.568;13.588;2024-02-23T15:09:05;8.81;68.65
68977;SHT31;56029;52.568;13.588;2024-02-23T15:11:31;8.80;70.12
68977;SHT31;56029;52.568;13.588;2024-02-23T15:13:56;8.81;69.61
68977;SHT31;56029;52.568;13.588;2024-02-23T15:16:22;8.80;70.02
68977;SHT31;56029;52.568;13.588;2024-02-23T15:18:47;8.73;69.85